< < Back
Terminal Aerodrome Forecast


Current Version              Previous Versions:   1  2  3  4  5  6  7  8  9  

Terminal Aerodrome Forecast

269
FTUS42 KCAE 032158 AAB
TAFCAE
TAF AMD
KCAE 032158Z 0322/0418 25012KT P6SM VCSH SCT050 BKN110
     FM040400 26006KT P6SM SCT040 BKN080
     FM040900 29005KT P6SM SCT040 BKN100=

Latest METAR

948
SAUS80 KWBC 040400 RRA
MTRCAE
METAR KCAE 040356Z 25005KT 10SM SCT047 SCT060 22/19 A2976 RMK AO2 SLP075
T02170189


USA.gov is the U.S. government's official web portal to all federal, state and local government web resources and services.